createdAt,value
2023-07-31T00:05:11.511Z,5.10
2023-07-31T00:08:14.503Z,4.90
2023-07-31T00:11:18.913Z,4.60
2023-07-31T00:14:21.944Z,4.70
2023-07-31T00:17:25.111Z,4.30
2023-07-31T00:20:28.006Z,5.10
2023-07-31T00:23:31.166Z,4.70
2023-07-31T00:26:34.127Z,5.40
2023-07-31T00:29:37.107Z,4.70
2023-07-31T00:32:41.175Z,5.50
2023-07-31T00:35:44.232Z,5.70
2023-07-31T00:38:47.216Z,5.70
2023-07-31T00:41:50.163Z,5.90
2023-07-31T00:44:54.162Z,5.50
2023-07-31T00:47:58.575Z,5.30
2023-07-31T00:51:02.646Z,6.10
2023-07-31T00:54:05.637Z,6.20
2023-07-31T00:57:09.980Z,6.40
2023-07-31T01:00:13.686Z,6.30
2023-07-31T01:03:16.413Z,7.10
2023-07-31T01:06:22.308Z,6.30
2023-07-31T01:10:03.939Z,7.10
2023-07-31T01:13:07.746Z,6.50
2023-07-31T01:16:10.698Z,6.80
2023-07-31T01:19:16.206Z,6.30
2023-07-31T01:22:37.429Z,7.00
2023-07-31T01:26:06.835Z,7.20
2023-07-31T01:29:27.089Z,7.40
2023-07-31T01:32:31.201Z,7.50
2023-07-31T01:35:36.401Z,7.10
2023-07-31T01:38:39.324Z,6.70
2023-07-31T01:41:41.951Z,7.40
2023-07-31T01:44:44.776Z,7.90
2023-07-31T01:47:47.742Z,8.80
2023-07-31T01:50:50.957Z,8.90
2023-07-31T01:53:53.911Z,8.60
2023-07-31T01:56:57.294Z,9.60
2023-07-31T02:00:00.091Z,10.20
2023-07-31T02:05:30.984Z,11.10
2023-07-31T02:08:33.946Z,10.70
2023-07-31T02:11:35.868Z,11.10
2023-07-31T02:14:37.891Z,10.80
2023-07-31T02:17:39.896Z,11.50
2023-07-31T02:20:42.698Z,10.90
2023-07-31T02:23:44.656Z,10.80
2023-07-31T02:26:47.331Z,10.80
2023-07-31T02:29:49.920Z,11.10
2023-07-31T02:32:52.122Z,12.40
2023-07-31T02:35:54.252Z,12.20
2023-07-31T02:38:59.510Z,12.30
2023-07-31T02:42:02.463Z,12.00
2023-07-31T02:45:05.822Z,11.60
2023-07-31T02:48:07.967Z,12.40
2023-07-31T02:51:09.902Z,12.20
2023-07-31T02:54:11.996Z,12.20
2023-07-31T02:57:14.159Z,10.50
2023-07-31T03:00:16.369Z,12.10
2023-07-31T03:03:18.705Z,12.20
2023-07-31T03:06:21.484Z,12.40
2023-07-31T03:09:23.739Z,12.90
2023-07-31T03:12:25.909Z,13.60
2023-07-31T03:15:28.004Z,13.90
2023-07-31T03:18:30.180Z,14.40
2023-07-31T03:21:32.333Z,13.70
2023-07-31T03:24:40.434Z,14.10
2023-07-31T03:27:42.530Z,13.20
2023-07-31T03:30:46.095Z,12.10
2023-07-31T03:33:48.076Z,10.60
2023-07-31T03:36:50.754Z,9.70
2023-07-31T03:39:53.051Z,8.40
2023-07-31T03:42:55.059Z,8.60
2023-07-31T03:45:57.272Z,8.80
2023-07-31T03:49:00.454Z,9.60
2023-07-31T03:52:02.556Z,8.10
2023-07-31T03:55:05.466Z,8.20
2023-07-31T03:58:07.796Z,9.20
2023-07-31T04:05:14.439Z,10.10
2023-07-31T04:08:17.439Z,9.20
2023-07-31T04:11:20.282Z,10.50
2023-07-31T04:14:23.287Z,9.20
2023-07-31T04:17:26.173Z,8.00
2023-07-31T04:20:29.230Z,7.40
2023-07-31T04:23:32.195Z,8.30
2023-07-31T04:26:35.039Z,7.00
2023-07-31T04:29:38.116Z,7.70
2023-07-31T04:32:41.023Z,8.20
2023-07-31T04:35:53.673Z,7.90
2023-07-31T04:38:57.278Z,7.80
2023-07-31T04:42:00.408Z,8.50
2023-07-31T04:45:03.540Z,9.00
2023-07-31T04:48:07.675Z,8.90
2023-07-31T04:51:13.374Z,8.90
2023-07-31T04:54:19.172Z,9.50
2023-07-31T04:57:22.044Z,9.30
2023-07-31T05:00:25.026Z,9.30
2023-07-31T05:03:28.765Z,9.90
2023-07-31T05:06:32.321Z,9.80
2023-07-31T05:09:35.224Z,9.40
2023-07-31T05:12:38.311Z,8.70
2023-07-31T05:15:43.142Z,9.40
2023-07-31T05:18:46.158Z,8.70
2023-07-31T05:21:49.349Z,8.60
2023-07-31T05:24:52.336Z,8.10
2023-07-31T05:27:55.123Z,8.50
2023-07-31T05:31:05.972Z,8.60
2023-07-31T05:34:09.291Z,8.50
2023-07-31T05:37:13.449Z,8.60
2023-07-31T06:05:11.714Z,9.10
2023-07-31T06:08:15.639Z,9.90
2023-07-31T06:11:18.433Z,9.90
2023-07-31T06:14:21.610Z,11.00
2023-07-31T06:17:24.986Z,10.60
2023-07-31T06:20:27.959Z,9.20
2023-07-31T06:23:32.144Z,10.20
2023-07-31T06:26:34.839Z,10.10
2023-07-31T06:29:38.107Z,10.50
2023-07-31T06:32:42.430Z,10.20
2023-07-31T06:35:45.505Z,9.90
2023-07-31T06:38:48.387Z,10.00
2023-07-31T06:41:51.282Z,10.10
2023-07-31T06:44:53.986Z,10.30
2023-07-31T06:47:57.006Z,11.00
2023-07-31T06:50:59.868Z,11.60
2023-07-31T06:54:02.875Z,11.90
2023-07-31T06:57:06.516Z,12.10
2023-07-31T07:00:10.206Z,13.60
2023-07-31T07:03:13.533Z,13.70
2023-07-31T07:06:16.539Z,13.20
2023-07-31T07:09:19.697Z,13.20
2023-07-31T07:12:22.319Z,14.30
2023-07-31T07:19:13.309Z,17.00
2023-07-31T07:22:16.210Z,16.60
2023-07-31T07:25:19.661Z,16.10
2023-07-31T07:28:22.436Z,15.40
2023-07-31T07:31:25.585Z,17.10
2023-07-31T07:34:29.751Z,15.80
2023-07-31T07:37:33.905Z,16.70
2023-07-31T07:40:41.436Z,17.40
2023-07-31T07:43:44.125Z,20.20
2023-07-31T07:46:47.142Z,17.80
2023-07-31T07:49:53.273Z,18.80
2023-07-31T07:52:57.097Z,18.80
2023-07-31T07:55:59.982Z,18.90
2023-07-31T07:59:02.663Z,18.30
2023-07-31T08:02:05.686Z,18.80
2023-07-31T08:05:10.173Z,18.10
2023-07-31T08:08:19.187Z,18.50
2023-07-31T08:11:23.629Z,19.50
2023-07-31T08:14:26.609Z,17.80
2023-07-31T08:17:29.218Z,18.90
2023-07-31T08:20:31.980Z,17.90
2023-07-31T08:23:36.499Z,18.40
2023-07-31T08:26:39.578Z,18.60
2023-07-31T08:29:42.381Z,18.50
2023-07-31T08:32:44.985Z,18.40
2023-07-31T08:35:48.087Z,18.30
2023-07-31T08:38:51.654Z,17.90
2023-07-31T08:41:59.664Z,18.50
2023-07-31T08:45:03.165Z,17.60
2023-07-31T08:48:06.112Z,17.70
2023-07-31T08:51:08.935Z,17.80
2023-07-31T08:54:11.624Z,17.30
2023-07-31T08:57:16.359Z,17.70
2023-07-31T09:00:22.000Z,18.00
2023-07-31T09:03:28.003Z,17.60
2023-07-31T09:06:32.604Z,18.00
2023-07-31T09:09:35.274Z,16.90
2023-07-31T09:12:38.875Z,17.00
2023-07-31T09:15:44.012Z,16.30
2023-07-31T09:22:08.342Z,15.80
2023-07-31T09:25:31.183Z,13.80
2023-07-31T09:28:33.960Z,15.80
2023-07-31T09:31:42.876Z,14.30
2023-07-31T09:34:45.634Z,14.60
2023-07-31T09:37:57.392Z,14.40
2023-07-31T09:41:01.087Z,15.40
2023-07-31T09:44:03.972Z,15.40
2023-07-31T09:47:06.751Z,15.10
2023-07-31T09:50:10.554Z,16.70
2023-07-31T09:53:13.927Z,14.60
2023-07-31T09:56:18.655Z,14.60
2023-07-31T09:59:22.956Z,13.30
2023-07-31T10:05:46.408Z,13.60
2023-07-31T10:08:52.261Z,11.40
2023-07-31T10:12:01.920Z,11.60
2023-07-31T10:15:04.935Z,10.00
2023-07-31T10:18:07.784Z,10.50
2023-07-31T10:21:10.364Z,10.80
2023-07-31T10:24:12.728Z,11.30
2023-07-31T10:27:14.675Z,11.00
2023-07-31T10:30:20.366Z,10.50
2023-07-31T10:33:22.835Z,12.10
2023-07-31T10:36:24.823Z,11.00
2023-07-31T10:39:39.041Z,12.00
2023-07-31T10:42:49.372Z,11.40
2023-07-31T10:45:51.493Z,11.40
2023-07-31T10:49:02.251Z,11.40
2023-07-31T10:52:05.271Z,10.00
2023-07-31T10:55:24.503Z,11.00
2023-07-31T10:58:26.957Z,11.70
2023-07-31T11:01:53.131Z,10.00
2023-07-31T11:05:11.502Z,10.30
2023-07-31T11:08:23.590Z,11.00
2023-07-31T11:11:25.594Z,10.10
2023-07-31T11:14:27.932Z,10.60
2023-07-31T11:17:30.438Z,9.90
2023-07-31T11:20:33.701Z,10.30
2023-07-31T11:23:39.044Z,9.80
2023-07-31T11:26:52.610Z,10.70
2023-07-31T11:30:01.223Z,9.20
2023-07-31T11:33:04.879Z,9.30
2023-07-31T11:36:17.153Z,9.10
2023-07-31T11:39:19.023Z,9.40
2023-07-31T11:42:20.761Z,10.20
2023-07-31T11:45:27.187Z,11.90
2023-07-31T11:48:35.239Z,12.00
2023-07-31T11:51:37.306Z,12.00
2023-07-31T11:54:41.658Z,12.40
2023-07-31T11:57:45.637Z,12.40
2023-07-31T12:00:48.620Z,11.40
2023-07-31T12:03:51.803Z,11.60
2023-07-31T12:06:56.063Z,11.80
2023-07-31T12:10:00.378Z,11.70
2023-07-31T12:13:03.560Z,12.00
2023-07-31T12:16:06.208Z,11.80
2023-07-31T12:19:08.437Z,11.70
2023-07-31T12:22:17.157Z,12.10
2023-07-31T12:25:19.296Z,11.90
2023-07-31T12:28:23.468Z,12.20
2023-07-31T12:31:29.438Z,11.40
2023-07-31T12:34:31.289Z,12.40
2023-07-31T12:37:33.935Z,10.40
2023-07-31T12:40:38.792Z,10.80
2023-07-31T12:43:42.174Z,14.30
2023-07-31T12:46:44.249Z,13.40
2023-07-31T12:49:46.510Z,11.30
2023-07-31T12:52:48.455Z,10.20
2023-07-31T12:55:50.725Z,9.40
2023-07-31T12:58:52.734Z,10.20
2023-07-31T13:01:54.727Z,10.40
2023-07-31T13:04:56.932Z,11.10
2023-07-31T13:07:59.175Z,10.40
2023-07-31T13:11:01.479Z,10.20
2023-07-31T13:14:03.578Z,11.20
2023-07-31T13:17:07.589Z,10.80
2023-07-31T13:20:11.947Z,11.00
2023-07-31T13:23:14.263Z,11.00
2023-07-31T13:26:16.128Z,10.50
2023-07-31T13:29:18.106Z,10.50
2023-07-31T13:32:21.513Z,10.30
2023-07-31T13:35:23.358Z,9.00
2023-07-31T13:38:25.212Z,9.90
2023-07-31T13:41:27.612Z,10.50
2023-07-31T13:44:29.740Z,9.50
2023-07-31T13:47:32.993Z,9.50
2023-07-31T13:50:35.431Z,9.80
2023-07-31T13:53:37.884Z,9.40
2023-07-31T13:56:40.240Z,9.50
2023-07-31T13:59:42.606Z,9.20
2023-07-31T14:05:32.606Z,8.90
2023-07-31T14:08:34.842Z,8.90
2023-07-31T14:11:40.636Z,8.00
2023-07-31T14:14:45.098Z,9.30
2023-07-31T14:17:47.387Z,8.40
2023-07-31T14:20:50.184Z,9.50
2023-07-31T14:23:52.374Z,8.50
2023-07-31T14:26:54.467Z,8.70
2023-07-31T14:29:57.195Z,9.00
2023-07-31T14:33:01.449Z,8.00
2023-07-31T14:36:03.912Z,7.90
2023-07-31T14:39:06.313Z,8.90
2023-07-31T14:42:08.435Z,7.90
2023-07-31T14:45:11.416Z,8.30
2023-07-31T14:48:14.406Z,8.00
2023-07-31T14:51:18.363Z,7.60
2023-07-31T14:54:20.515Z,6.70
2023-07-31T14:57:23.084Z,7.60
2023-07-31T15:00:27.356Z,7.90
2023-07-31T15:03:31.129Z,7.60
2023-07-31T15:06:33.289Z,7.70
2023-07-31T15:09:35.550Z,8.10
2023-07-31T15:12:39.856Z,8.50
2023-07-31T15:15:42.157Z,7.80
2023-07-31T15:18:44.361Z,8.20
2023-07-31T15:21:46.490Z,8.10
2023-07-31T15:24:50.634Z,8.50
2023-07-31T15:27:53.099Z,8.40
2023-07-31T15:30:55.387Z,8.00
2023-07-31T15:33:57.472Z,7.70
2023-07-31T15:36:59.802Z,8.10
2023-07-31T15:40:02.074Z,8.20
2023-07-31T15:43:05.078Z,8.30
2023-07-31T15:46:07.111Z,8.00
2023-07-31T15:49:09.227Z,9.40
2023-07-31T15:52:11.649Z,7.90
2023-07-31T15:55:13.578Z,8.20
2023-07-31T15:58:16.764Z,8.60
2023-07-31T16:01:18.959Z,8.30
2023-07-31T16:04:21.266Z,8.50
2023-07-31T16:07:24.405Z,8.50
2023-07-31T16:10:26.870Z,8.40
2023-07-31T16:13:28.868Z,9.30
2023-07-31T16:16:31.209Z,9.20
2023-07-31T16:19:33.711Z,7.80
2023-07-31T16:22:35.749Z,9.40
2023-07-31T16:25:38.045Z,8.80
2023-07-31T16:28:40.162Z,9.10
2023-07-31T16:31:55.366Z,8.50
2023-07-31T16:34:59.912Z,9.20
2023-07-31T16:38:02.082Z,9.80
2023-07-31T16:41:04.006Z,10.10
2023-07-31T16:44:06.155Z,10.00
2023-07-31T16:47:08.301Z,9.90
2023-07-31T16:50:10.502Z,9.30
2023-07-31T16:53:12.930Z,9.30
2023-07-31T16:56:15.800Z,10.30
2023-07-31T16:59:18.829Z,10.60
2023-07-31T17:02:21.338Z,10.30
2023-07-31T17:05:24.695Z,9.60
2023-07-31T17:08:26.542Z,9.40
2023-07-31T17:11:28.752Z,8.70
2023-07-31T17:14:31.080Z,10.60
2023-07-31T17:17:33.384Z,9.30
2023-07-31T17:20:35.770Z,9.70
2023-07-31T17:23:38.200Z,8.90
2023-07-31T17:26:40.294Z,9.70
2023-07-31T17:29:42.459Z,10.30
2023-07-31T17:32:44.862Z,10.60
2023-07-31T17:35:47.308Z,11.60
2023-07-31T17:38:50.165Z,10.70
2023-07-31T17:41:52.665Z,10.00
2023-07-31T17:44:55.001Z,9.30
2023-07-31T17:47:57.445Z,10.30
2023-07-31T17:50:59.704Z,10.60
2023-07-31T17:54:02.033Z,10.10
2023-07-31T17:57:05.672Z,11.40
2023-07-31T18:00:08.509Z,11.60
2023-07-31T18:05:11.919Z,10.60
2023-07-31T18:08:15.026Z,11.90
2023-07-31T18:11:18.076Z,10.30
2023-07-31T18:14:23.202Z,11.30
2023-07-31T18:17:27.641Z,10.30
2023-07-31T18:20:30.909Z,10.00
2023-07-31T18:23:34.841Z,9.30
2023-07-31T18:26:38.898Z,9.00
2023-07-31T18:29:42.871Z,10.10
2023-07-31T18:46:17.085Z,11.00
2023-07-31T18:49:20.230Z,13.50
2023-07-31T18:52:23.183Z,12.90
2023-07-31T18:55:27.475Z,12.00
2023-07-31T18:58:31.268Z,11.60
2023-07-31T19:01:34.441Z,9.40
2023-07-31T19:04:37.443Z,10.50
2023-07-31T19:07:40.659Z,10.30
2023-07-31T19:10:44.565Z,10.50
2023-07-31T19:13:48.809Z,11.30
2023-07-31T19:16:52.242Z,10.40
2023-07-31T19:19:55.793Z,10.80
2023-07-31T19:23:00.238Z,11.40
2023-07-31T19:26:05.642Z,10.30
2023-07-31T19:29:08.967Z,11.80
2023-07-31T19:32:12.257Z,12.40
2023-07-31T19:35:16.769Z,11.30
2023-07-31T19:38:19.589Z,10.70
2023-07-31T19:41:22.659Z,11.90
2023-07-31T19:44:26.183Z,12.20
2023-07-31T19:47:29.678Z,11.50
2023-07-31T19:50:32.723Z,11.80
2023-07-31T19:53:35.535Z,12.70
2023-07-31T19:56:39.032Z,12.50
2023-07-31T19:59:42.262Z,13.30
2023-07-31T20:02:45.530Z,12.50
2023-07-31T20:05:50.163Z,12.90
2023-07-31T20:08:53.254Z,12.90
2023-07-31T20:11:57.395Z,13.60
2023-07-31T20:28:35.454Z,13.60
2023-07-31T20:31:41.378Z,13.80
2023-07-31T20:34:44.094Z,14.10
2023-07-31T20:37:47.005Z,13.80
2023-07-31T20:40:53.268Z,14.00
2023-07-31T20:43:56.203Z,14.30
2023-07-31T20:46:58.964Z,14.60
2023-07-31T20:50:01.792Z,14.30
2023-07-31T20:53:05.646Z,14.60
2023-07-31T20:56:08.579Z,13.80
2023-07-31T20:59:11.456Z,15.20
2023-07-31T21:02:14.791Z,16.90
2023-07-31T21:05:18.005Z,16.40
2023-07-31T21:08:21.087Z,14.50
2023-07-31T21:11:25.215Z,14.70
2023-07-31T21:14:27.964Z,14.70
2023-07-31T21:17:30.778Z,14.20
2023-07-31T21:20:33.516Z,15.20
2023-07-31T21:23:36.577Z,15.90
2023-07-31T21:26:41.071Z,14.80
2023-07-31T21:29:47.514Z,15.20
2023-07-31T21:32:50.506Z,15.10
2023-07-31T21:35:53.507Z,15.50
2023-07-31T21:38:56.688Z,14.30
2023-07-31T21:41:59.466Z,15.60
2023-07-31T21:45:02.148Z,16.30
2023-07-31T21:48:05.585Z,15.60
2023-07-31T21:51:09.424Z,17.60
2023-07-31T21:54:12.300Z,17.40
2023-07-31T21:57:15.063Z,16.90
2023-07-31T22:00:17.916Z,17.60
2023-07-31T22:05:11.802Z,17.30
2023-07-31T22:08:14.750Z,18.20
2023-07-31T22:11:17.716Z,18.70
2023-07-31T22:14:20.418Z,19.20
2023-07-31T22:17:23.416Z,25.60
2023-07-31T22:20:26.090Z,20.50
2023-07-31T22:23:28.917Z,22.80
2023-07-31T22:26:31.752Z,22.20
2023-07-31T22:29:34.711Z,23.40
2023-07-31T22:32:37.446Z,22.00
2023-07-31T22:35:40.426Z,21.70
2023-07-31T22:38:43.113Z,23.60
2023-07-31T22:41:45.737Z,25.60
2023-07-31T22:44:48.476Z,22.70
2023-07-31T22:47:51.290Z,20.10
2023-07-31T22:50:54.140Z,16.40
2023-07-31T22:53:56.832Z,18.40
2023-07-31T22:56:59.712Z,19.40
2023-07-31T23:00:02.583Z,20.00
2023-07-31T23:03:05.580Z,20.00
2023-07-31T23:06:08.691Z,20.30
2023-07-31T23:09:11.549Z,18.60
2023-07-31T23:12:14.492Z,19.70
2023-07-31T23:15:17.318Z,20.80
2023-07-31T23:18:20.114Z,20.30
2023-07-31T23:21:22.906Z,21.60
2023-07-31T23:24:25.977Z,20.90
2023-07-31T23:27:28.827Z,19.70
2023-07-31T23:30:32.079Z,20.10
2023-07-31T23:33:34.900Z,19.50
2023-07-31T23:43:48.469Z,17.80
2023-07-31T23:46:51.143Z,18.20
2023-07-31T23:49:54.237Z,19.60
2023-07-31T23:52:57.804Z,20.40
2023-07-31T23:56:01.061Z,19.60
2023-07-31T23:59:04.729Z,20.10
